createdAt,value
2018-06-04T00:00:51.855Z,64.13
2018-06-04T00:03:20.130Z,64.30
2018-06-04T00:05:48.551Z,65.22
2018-06-04T00:08:16.993Z,64.95
2018-06-04T00:10:45.365Z,65.19
2018-06-04T00:13:13.578Z,64.32
2018-06-04T00:15:41.822Z,64.70
2018-06-04T00:18:10.089Z,64.56
2018-06-04T00:20:38.518Z,64.32
2018-06-04T00:23:06.763Z,64.73
2018-06-04T00:25:35.149Z,64.95
2018-06-04T00:28:03.443Z,65.60
2018-06-04T00:30:31.885Z,64.79
2018-06-04T00:33:00.175Z,65.07
2018-06-04T00:35:29.257Z,65.45
2018-06-04T00:37:57.638Z,65.24
2018-06-04T00:40:25.961Z,64.53
2018-06-04T00:42:54.202Z,65.12
2018-06-04T00:45:22.475Z,65.29
2018-06-04T00:47:50.789Z,65.87
2018-06-04T00:50:20.123Z,66.49
2018-06-04T00:52:48.333Z,65.60
2018-06-04T00:55:16.541Z,65.28
2018-06-04T00:57:44.890Z,65.20
2018-06-04T01:00:13.074Z,65.00
2018-06-04T01:02:41.486Z,64.16
2018-06-04T01:05:09.707Z,63.85
2018-06-04T01:07:37.977Z,63.84
2018-06-04T01:10:06.195Z,63.65
2018-06-04T01:12:34.434Z,63.78
2018-06-04T01:15:02.613Z,63.03
2018-06-04T01:17:31.005Z,64.36
2018-06-04T01:19:59.222Z,64.67
2018-06-04T01:22:27.737Z,64.61
2018-06-04T01:24:56.307Z,65.14
2018-06-04T01:27:24.543Z,64.38
2018-06-04T01:29:53.545Z,65.09
2018-06-04T01:32:21.882Z,65.57
2018-06-04T01:34:50.102Z,65.96
2018-06-04T01:37:18.438Z,65.59
2018-06-04T01:39:46.600Z,66.20
2018-06-04T01:42:14.930Z,66.08
2018-06-04T01:44:43.167Z,65.92
2018-06-04T01:47:11.450Z,66.16
2018-06-04T01:49:40.382Z,65.41
2018-06-04T01:52:08.506Z,65.11
2018-06-04T01:54:36.693Z,66.04
2018-06-04T01:57:05.120Z,66.42
2018-06-04T01:59:33.680Z,65.72
2018-06-04T02:02:01.915Z,65.67
2018-06-04T02:04:30.137Z,65.15
2018-06-04T02:06:58.261Z,66.32
2018-06-04T02:09:27.313Z,66.73
2018-06-04T02:11:55.578Z,66.16
2018-06-04T02:14:23.922Z,66.22
2018-06-04T02:16:52.094Z,67.15
2018-06-04T02:19:20.432Z,66.88
2018-06-04T02:21:48.755Z,66.85
2018-06-04T02:24:17.025Z,67.62
2018-06-04T02:26:45.348Z,67.99
2018-06-04T02:29:13.490Z,66.86
2018-06-04T02:31:41.873Z,66.88
2018-06-04T02:34:10.270Z,66.77
2018-06-04T02:36:38.515Z,66.05
2018-06-04T02:39:07.507Z,66.00
2018-06-04T02:41:35.821Z,66.34
2018-06-04T02:44:04.162Z,67.27
2018-06-04T02:46:32.445Z,67.95
2018-06-04T02:49:00.767Z,68.39
2018-06-04T02:51:28.996Z,67.58
2018-06-04T02:53:57.270Z,66.59
2018-06-04T02:56:25.530Z,66.64
2018-06-04T02:58:53.830Z,66.81
2018-06-04T03:01:22.211Z,67.19
2018-06-04T03:03:50.625Z,66.46
2018-06-04T03:06:18.957Z,66.14
2018-06-04T03:08:47.053Z,65.85
2018-06-04T03:11:15.447Z,65.92
2018-06-04T03:13:43.798Z,65.85
2018-06-04T03:16:11.959Z,65.81
2018-06-04T03:18:40.159Z,65.62
2018-06-04T03:21:08.323Z,66.08
2018-06-04T03:23:36.624Z,66.79
2018-06-04T03:26:05.081Z,66.72
2018-06-04T03:28:33.353Z,66.96
2018-06-04T03:31:01.642Z,66.96
2018-06-04T03:33:29.906Z,66.66
2018-06-04T03:35:58.069Z,66.21
2018-06-04T03:38:26.303Z,66.27
2018-06-04T03:40:54.632Z,66.62
2018-06-04T03:43:22.922Z,66.09
2018-06-04T03:45:51.228Z,65.90
2018-06-04T03:48:19.595Z,66.12
2018-06-04T03:50:47.833Z,66.85
2018-06-04T03:53:16.150Z,66.63
2018-06-04T03:55:44.398Z,66.77
2018-06-04T03:58:13.026Z,67.44
2018-06-04T04:00:41.362Z,66.90
2018-06-04T04:03:09.733Z,67.41
2018-06-04T04:05:38.071Z,67.99
2018-06-04T04:08:06.286Z,67.33
2018-06-04T04:10:34.566Z,66.14
2018-06-04T04:13:02.883Z,67.13
2018-06-04T04:15:31.105Z,66.57
2018-06-04T04:17:59.397Z,66.36
2018-06-04T04:20:28.025Z,65.61
2018-06-04T04:22:56.379Z,65.10
2018-06-04T04:25:24.565Z,65.26
2018-06-04T04:27:52.958Z,65.14
2018-06-04T04:30:21.181Z,65.68
2018-06-04T04:32:49.452Z,65.56
2018-06-04T04:35:17.671Z,66.20
2018-06-04T04:37:46.145Z,66.20
2018-06-04T04:40:15.422Z,65.10
2018-06-04T04:42:43.631Z,64.51
2018-06-04T04:45:11.978Z,62.29
2018-06-04T04:47:40.285Z,62.34
2018-06-04T04:50:08.665Z,63.19
2018-06-04T04:52:37.233Z,63.39
2018-06-04T04:55:05.482Z,61.86
2018-06-04T04:57:34.016Z,61.35
2018-06-04T05:00:02.250Z,62.07
2018-06-04T05:02:30.418Z,61.32
2018-06-04T05:04:58.610Z,60.85
2018-06-04T05:07:26.869Z,61.68
2018-06-04T05:09:55.938Z,62.48
2018-06-04T05:12:24.562Z,61.10
2018-06-04T05:14:52.854Z,60.52
2018-06-04T05:17:21.312Z,59.82
2018-06-04T05:19:49.599Z,59.94
2018-06-04T05:22:18.025Z,60.43
2018-06-04T05:24:46.462Z,60.29
2018-06-04T05:27:14.745Z,59.99
2018-06-04T05:29:43.025Z,59.61
2018-06-04T05:32:11.290Z,58.52
2018-06-04T05:34:39.371Z,58.19
2018-06-04T05:37:07.682Z,58.14
2018-06-04T05:39:36.122Z,57.86
2018-06-04T05:42:04.514Z,57.51
2018-06-04T05:44:32.777Z,57.86
2018-06-04T05:47:01.145Z,57.60
2018-06-04T05:49:30.258Z,56.94
2018-06-04T05:51:58.516Z,56.14
2018-06-04T05:54:27.090Z,55.17
2018-06-04T05:56:55.329Z,54.87
2018-06-04T05:59:23.693Z,54.25
2018-06-04T06:01:52.265Z,54.00
2018-06-04T06:04:20.662Z,53.82
2018-06-04T06:06:48.906Z,53.00
2018-06-04T06:09:17.362Z,52.80
2018-06-04T06:11:45.998Z,53.19
2018-06-04T06:14:14.393Z,53.15
2018-06-04T06:16:42.518Z,53.71
2018-06-04T06:19:11.009Z,53.17
2018-06-04T06:21:39.281Z,52.98
2018-06-04T06:24:07.761Z,53.00
2018-06-04T06:26:36.158Z,53.25
2018-06-04T06:29:05.292Z,53.28
2018-06-04T06:31:33.618Z,52.94
2018-06-04T06:34:01.898Z,53.04
2018-06-04T06:36:30.274Z,52.16
2018-06-04T06:38:58.542Z,52.08
2018-06-04T06:41:26.829Z,51.38
2018-06-04T06:43:55.297Z,50.86
2018-06-04T06:46:23.690Z,50.98
2018-06-04T06:48:52.305Z,50.40
2018-06-04T06:51:20.553Z,50.44
2018-06-04T06:53:48.857Z,49.92
2018-06-04T06:56:17.210Z,50.19
2018-06-04T06:58:46.201Z,49.57
2018-06-04T07:01:14.853Z,49.91
2018-06-04T07:03:43.058Z,49.04
2018-06-04T07:06:11.443Z,49.54
2018-06-04T07:08:39.719Z,49.51
2018-06-04T07:11:07.998Z,49.58
2018-06-04T07:13:36.576Z,49.05
2018-06-04T07:16:04.953Z,49.61
2018-06-04T07:18:54.763Z,49.38
2018-06-04T07:21:44.682Z,49.62
2018-06-04T07:25:25.833Z,49.09
2018-06-04T07:29:20.053Z,48.68
2018-06-04T07:32:34.773Z,48.38
2018-06-04T07:35:11.608Z,47.43
2018-06-04T07:37:46.437Z,46.50
2018-06-04T07:40:14.714Z,47.51
2018-06-04T07:42:43.028Z,47.37
2018-06-04T07:45:11.365Z,47.55
2018-06-04T07:47:39.658Z,47.07
2018-06-04T07:50:08.235Z,47.17
2018-06-04T07:52:36.636Z,46.23
2018-06-04T07:55:05.030Z,46.44
2018-06-04T07:57:33.366Z,46.42
2018-06-04T08:00:01.534Z,45.47
2018-06-04T08:02:29.831Z,45.28
2018-06-04T08:04:58.161Z,46.13
2018-06-04T08:07:26.526Z,45.14
2018-06-04T08:09:54.982Z,45.55
2018-06-04T08:12:23.574Z,45.96
2018-06-04T08:14:52.033Z,45.33
2018-06-04T08:17:20.285Z,44.44
2018-06-04T08:19:48.821Z,44.81
2018-06-04T08:22:17.069Z,44.79
2018-06-04T08:24:45.326Z,44.99
2018-06-04T08:27:13.610Z,43.42
2018-06-04T08:29:41.873Z,43.46
2018-06-04T08:32:10.272Z,43.24
2018-06-04T08:34:38.766Z,43.34
2018-06-04T08:37:06.935Z,42.92
2018-06-04T08:39:35.510Z,42.99
2018-06-04T08:42:04.102Z,43.33
2018-06-04T08:44:32.646Z,42.07
2018-06-04T08:47:13.254Z,41.83
2018-06-04T08:49:45.509Z,41.57
2018-06-04T08:52:13.683Z,41.94
2018-06-04T08:54:41.849Z,41.93
2018-06-04T08:57:10.317Z,40.28
2018-06-04T08:59:38.830Z,42.19
2018-06-04T09:02:06.978Z,41.26
2018-06-04T09:04:35.257Z,40.40
2018-06-04T09:07:03.733Z,41.43
2018-06-04T09:09:32.256Z,40.99
2018-06-04T09:12:00.686Z,41.26
2018-06-04T09:14:28.985Z,41.49
2018-06-04T09:16:58.314Z,39.45
2018-06-04T09:19:26.557Z,39.44
2018-06-04T09:21:54.847Z,39.74
2018-06-04T09:24:23.106Z,41.26
2018-06-04T09:26:51.402Z,40.46
2018-06-04T09:29:19.671Z,41.90
2018-06-04T09:31:48.155Z,40.34
2018-06-04T09:34:16.333Z,40.07
2018-06-04T09:36:44.606Z,40.24
2018-06-04T09:39:14.865Z,41.34
2018-06-04T09:41:43.190Z,40.20
2018-06-04T09:44:11.486Z,40.94
2018-06-04T09:46:39.950Z,38.54
2018-06-04T09:49:08.117Z,39.92
2018-06-04T09:51:36.514Z,37.58
2018-06-04T09:54:04.817Z,38.90
2018-06-04T09:56:33.161Z,39.45
2018-06-04T09:59:02.296Z,38.42
2018-06-04T10:01:30.675Z,36.39
2018-06-04T10:03:58.721Z,37.34
2018-06-04T10:06:27.053Z,38.15
2018-06-04T10:08:55.563Z,38.17
2018-06-04T10:11:23.841Z,37.98
2018-06-04T10:13:52.122Z,38.30
2018-06-04T10:16:21.088Z,38.01
2018-06-04T10:18:49.292Z,37.62
2018-06-04T10:21:24.551Z,41.22
2018-06-04T10:23:53.737Z,38.39
2018-06-04T10:26:21.813Z,38.02
2018-06-04T10:28:56.439Z,38.02
2018-06-04T10:31:31.397Z,41.04
2018-06-04T10:34:11.012Z,41.39
2018-06-04T10:36:46.983Z,39.83
2018-06-04T10:39:15.995Z,37.00
2018-06-04T10:41:45.439Z,37.02
2018-06-04T10:44:14.358Z,37.08
2018-06-04T10:46:43.385Z,38.50
2018-06-04T10:49:22.929Z,36.83
2018-06-04T10:51:57.431Z,37.45
2018-06-04T10:54:26.847Z,36.14
2018-06-04T10:56:55.129Z,39.65
2018-06-04T10:59:24.394Z,36.14
2018-06-04T11:01:54.829Z,36.56
2018-06-04T11:04:23.311Z,36.62
2018-06-04T11:06:51.488Z,35.78
2018-06-04T11:09:19.788Z,36.10
2018-06-04T11:11:48.143Z,34.84
2018-06-04T11:14:16.419Z,35.20
2018-06-04T11:16:44.800Z,37.98
2018-06-04T11:19:12.975Z,35.13
2018-06-04T11:21:42.056Z,34.81
2018-06-04T11:24:10.662Z,35.11
2018-06-04T11:26:38.927Z,34.65
2018-06-04T11:29:07.301Z,33.58
2018-06-04T11:31:35.897Z,33.55
2018-06-04T11:34:04.366Z,33.44
2018-06-04T11:36:32.835Z,34.03
2018-06-04T11:39:02.801Z,40.12
2018-06-04T11:42:17.822Z,35.70
2018-06-04T11:44:51.945Z,34.03
2018-06-04T11:47:20.210Z,38.65
2018-06-04T11:49:48.573Z,38.51
2018-06-04T11:52:17.154Z,35.42
2018-06-04T11:54:45.355Z,35.60
2018-06-04T11:57:13.718Z,36.16
2018-06-04T11:59:42.267Z,35.66
2018-06-04T12:02:10.980Z,39.42
2018-06-04T12:04:40.634Z,36.13
2018-06-04T12:07:09.634Z,34.49
2018-06-04T12:09:38.701Z,38.65
2018-06-04T12:12:09.570Z,35.90
2018-06-04T12:14:38.330Z,38.77
2018-06-04T12:17:06.901Z,38.98
2018-06-04T12:19:36.300Z,34.84
2018-06-04T12:25:31.721Z,34.85
2018-06-04T12:27:59.749Z,35.37
2018-06-04T12:30:27.608Z,37.86
2018-06-04T12:32:55.842Z,35.27
2018-06-04T12:35:24.329Z,37.75
2018-06-04T12:37:52.806Z,35.35
2018-06-04T12:40:21.942Z,35.86
2018-06-04T12:42:50.380Z,34.07
2018-06-04T12:45:18.890Z,34.37
2018-06-04T12:47:47.136Z,34.15
2018-06-04T12:50:15.520Z,37.63
2018-06-04T12:52:43.701Z,34.38
2018-06-04T12:55:11.926Z,33.24
2018-06-04T12:57:40.432Z,32.85
2018-06-04T13:00:08.734Z,33.96
2018-06-04T13:02:37.092Z,33.89
2018-06-04T13:05:05.577Z,33.23
2018-06-04T13:07:34.061Z,35.39
2018-06-04T13:10:02.478Z,37.28
2018-06-04T13:12:30.858Z,33.21
2018-06-04T13:14:59.441Z,32.34
2018-06-04T13:17:27.793Z,34.55
2018-06-04T13:19:56.269Z,33.99
2018-06-04T13:22:24.557Z,35.88
2018-06-04T13:24:52.833Z,34.62
2018-06-04T13:27:21.102Z,36.14
2018-06-04T13:29:49.380Z,35.95
2018-06-04T13:32:18.430Z,36.83
2018-06-04T13:34:46.853Z,34.91
2018-06-04T13:37:15.650Z,34.94
2018-06-04T13:39:44.030Z,36.23
2018-06-04T13:42:12.513Z,36.85
2018-06-04T13:44:40.885Z,38.20
2018-06-04T13:47:09.293Z,37.74
2018-06-04T13:49:37.641Z,39.93
2018-06-04T13:52:06.237Z,37.76
2018-06-04T13:54:34.557Z,37.60
2018-06-04T13:57:03.349Z,39.45
2018-06-04T13:59:31.729Z,38.17
2018-06-04T14:02:00.082Z,38.10
2018-06-04T14:04:29.721Z,38.82
2018-06-04T14:06:58.092Z,37.75
2018-06-04T14:09:26.605Z,38.36
2018-06-04T14:11:55.062Z,39.67
2018-06-04T14:14:23.385Z,37.37
2018-06-04T14:16:51.820Z,40.49
2018-06-04T14:19:20.497Z,37.30
2018-06-04T14:21:48.485Z,37.08
2018-06-04T14:24:16.844Z,37.03
2018-06-04T14:26:45.113Z,38.19
2018-06-04T14:29:13.149Z,37.09
2018-06-04T14:31:41.235Z,41.37
2018-06-04T14:34:09.910Z,38.40
2018-06-04T14:36:38.532Z,36.75
2018-06-04T14:39:08.452Z,37.47
2018-06-04T14:41:37.025Z,37.22
2018-06-04T14:44:05.143Z,37.17
2018-06-04T14:46:33.334Z,37.23
2018-06-04T14:49:01.298Z,36.81
2018-06-04T14:51:30.243Z,36.90
2018-06-04T14:53:58.214Z,36.10
2018-06-04T14:56:26.480Z,36.09
2018-06-04T14:58:54.438Z,37.10
2018-06-04T15:01:22.396Z,38.11
2018-06-04T15:03:50.293Z,39.74
2018-06-04T15:06:18.781Z,40.03
2018-06-04T15:08:47.054Z,39.81
2018-06-04T15:11:15.256Z,40.68
2018-06-04T15:13:43.644Z,41.13
2018-06-04T15:16:12.496Z,39.99
2018-06-04T15:18:40.816Z,40.02
2018-06-04T15:21:09.244Z,41.51
2018-06-04T15:23:37.729Z,40.24
2018-06-04T15:26:06.595Z,41.01
2018-06-04T15:28:34.845Z,40.00
2018-06-04T15:31:03.251Z,39.94
2018-06-04T15:33:31.577Z,40.55
2018-06-04T15:35:59.873Z,40.08
2018-06-04T15:38:28.393Z,39.41
2018-06-04T15:40:56.731Z,40.34
2018-06-04T15:43:24.966Z,40.82
2018-06-04T15:45:53.184Z,40.14
2018-06-04T15:48:25.724Z,40.48
2018-06-04T15:50:54.401Z,39.72
2018-06-04T15:53:22.986Z,39.64
2018-06-04T15:55:51.428Z,40.93
2018-06-04T15:58:20.037Z,41.83
2018-06-04T16:00:48.345Z,41.59
2018-06-04T16:03:16.801Z,41.50
2018-06-04T16:05:45.724Z,41.21
2018-06-04T16:08:13.725Z,41.64
2018-06-04T16:10:41.754Z,42.43
2018-06-04T16:13:10.701Z,42.53
2018-06-04T16:15:38.800Z,42.92
2018-06-04T16:18:06.833Z,43.21
2018-06-04T16:20:34.959Z,43.76
2018-06-04T16:23:02.875Z,43.28
2018-06-04T16:25:30.798Z,43.53
2018-06-04T16:27:58.819Z,43.49
2018-06-04T16:30:26.870Z,44.11
2018-06-04T16:32:55.075Z,43.42
2018-06-04T16:35:43.718Z,44.07
2018-06-04T16:38:11.669Z,43.24
2018-06-04T16:40:40.167Z,43.74
2018-06-04T16:43:08.492Z,43.46
2018-06-04T16:45:37.090Z,43.02
2018-06-04T16:48:05.722Z,42.38
2018-06-04T16:50:34.165Z,43.02
2018-06-04T16:53:02.034Z,43.20
2018-06-04T16:55:30.363Z,42.50
2018-06-04T16:57:58.807Z,42.49
2018-06-04T17:00:26.914Z,43.11
2018-06-04T17:02:54.932Z,42.77
2018-06-04T17:05:22.949Z,42.49
2018-06-04T17:07:51.939Z,43.48
2018-06-04T17:10:19.870Z,44.32
2018-06-04T17:12:47.814Z,45.16
2018-06-04T17:15:15.820Z,44.91
2018-06-04T17:17:43.714Z,44.23
2018-06-04T17:20:11.633Z,44.08
2018-06-04T17:22:39.700Z,44.17
2018-06-04T17:25:07.691Z,44.17
2018-06-04T17:27:35.786Z,45.02
2018-06-04T17:30:03.996Z,45.34
2018-06-04T17:32:31.873Z,45.95
2018-06-04T17:35:00.033Z,45.77
2018-06-04T17:37:27.941Z,46.60
2018-06-04T17:39:55.788Z,46.41
2018-06-04T17:42:23.640Z,45.80
2018-06-04T17:44:51.669Z,46.41
2018-06-04T17:47:19.642Z,46.54
2018-06-04T17:49:47.750Z,46.36
2018-06-04T17:52:15.775Z,47.44
2018-06-04T17:54:43.729Z,46.67
2018-06-04T17:57:12.185Z,46.08
2018-06-04T17:59:40.141Z,46.62
2018-06-04T18:02:08.208Z,47.07
2018-06-04T18:04:36.164Z,47.39
2018-06-04T18:07:04.453Z,47.40
2018-06-04T18:09:32.537Z,48.36
2018-06-04T18:12:00.558Z,48.77
2018-06-04T18:14:28.619Z,48.69
2018-06-04T18:16:56.741Z,49.09
2018-06-04T18:19:24.812Z,49.73
2018-06-04T18:21:53.304Z,49.67
2018-06-04T18:24:21.288Z,49.80
2018-06-04T18:26:49.325Z,50.36
2018-06-04T18:29:18.048Z,50.20
2018-06-04T18:31:46.177Z,49.97
2018-06-04T18:34:14.075Z,51.16
2018-06-04T18:36:42.170Z,51.67
2018-06-04T18:39:10.181Z,52.09
2018-06-04T18:41:38.386Z,51.16
2018-06-04T18:44:07.257Z,51.61
2018-06-04T18:46:35.222Z,50.70
2018-06-04T18:49:03.621Z,48.10
2018-06-04T18:51:31.647Z,50.31
2018-06-04T18:53:59.946Z,51.00
2018-06-04T18:56:27.874Z,51.28
2018-06-04T18:58:56.843Z,51.59
2018-06-04T19:01:24.777Z,51.96
2018-06-04T19:03:52.715Z,52.00
2018-06-04T19:06:20.662Z,53.88
2018-06-04T19:08:48.606Z,55.73
2018-06-04T19:11:16.776Z,56.77
2018-06-04T19:13:44.714Z,58.16
2018-06-04T19:16:12.712Z,59.18
2018-06-04T19:18:40.529Z,58.94
2018-06-04T19:21:08.475Z,59.90
2018-06-04T19:23:36.342Z,59.70
2018-06-04T19:26:04.341Z,60.00
2018-06-04T19:28:32.254Z,59.89
2018-06-04T19:31:00.206Z,60.20
2018-06-04T19:33:28.151Z,60.22
2018-06-04T19:35:56.074Z,61.09
2018-06-04T19:38:23.986Z,61.32
2018-06-04T19:40:51.881Z,63.05
2018-06-04T19:43:19.952Z,63.47
2018-06-04T19:45:47.840Z,62.59
2018-06-04T19:48:15.866Z,61.38
2018-06-04T19:50:43.826Z,60.08
2018-06-04T19:53:11.767Z,59.80
2018-06-04T19:55:39.765Z,61.13
2018-06-04T19:58:07.747Z,60.43
2018-06-04T20:00:35.660Z,61.71
2018-06-04T20:03:03.664Z,60.32
2018-06-04T20:05:31.938Z,61.23
2018-06-04T20:07:59.870Z,62.86
2018-06-04T20:10:27.686Z,61.74
2018-06-04T20:12:55.542Z,60.82
2018-06-04T20:15:23.429Z,61.15
2018-06-04T20:17:51.378Z,61.29
2018-06-04T20:20:19.307Z,60.29
2018-06-04T20:22:47.259Z,60.95
2018-06-04T20:25:15.263Z,60.38
2018-06-04T20:27:43.273Z,60.90
2018-06-04T20:30:11.250Z,59.19
2018-06-04T20:32:39.147Z,59.00
2018-06-04T20:35:07.077Z,60.18
2018-06-04T20:37:35.606Z,59.25
2018-06-04T20:40:03.554Z,60.82
2018-06-04T20:42:32.233Z,61.61
2018-06-04T20:45:00.274Z,62.29
2018-06-04T20:47:28.148Z,62.32
2018-06-04T20:49:56.103Z,64.63
2018-06-04T20:52:24.031Z,67.81
2018-06-04T20:54:51.955Z,69.66
2018-06-04T20:57:19.796Z,69.92
2018-06-04T20:59:48.679Z,71.99
2018-06-04T21:02:16.531Z,73.54
2018-06-04T21:04:44.486Z,73.99
2018-06-04T21:07:13.146Z,73.08
2018-06-04T21:09:41.887Z,73.70
2018-06-04T21:12:09.840Z,73.13
2018-06-04T21:14:38.060Z,73.32
2018-06-04T21:17:06.007Z,73.02
2018-06-04T21:19:34.832Z,73.59
2018-06-04T21:22:02.794Z,73.68
2018-06-04T21:24:30.716Z,73.49
2018-06-04T21:26:58.689Z,74.60
2018-06-04T21:29:26.604Z,73.48
2018-06-04T21:31:55.098Z,73.91
2018-06-04T21:34:23.408Z,73.19
2018-06-04T21:36:51.790Z,73.07
2018-06-04T21:39:19.738Z,74.02
2018-06-04T21:41:49.922Z,74.84
2018-06-04T21:44:18.981Z,75.00
2018-06-04T21:46:46.840Z,74.53
2018-06-04T21:49:18.883Z,74.46
2018-06-04T21:51:47.866Z,75.54
2018-06-04T21:54:16.305Z,74.97
2018-06-04T21:56:44.329Z,75.03
2018-06-04T21:59:12.284Z,76.57
2018-06-04T22:01:40.293Z,76.30
2018-06-04T22:04:08.219Z,75.00
2018-06-04T22:06:36.108Z,74.30
2018-06-04T22:09:06.320Z,74.54
2018-06-04T22:11:34.254Z,75.20
2018-06-04T22:14:02.150Z,75.27
2018-06-04T22:16:30.193Z,74.04
2018-06-04T22:18:58.025Z,73.63
2018-06-04T22:21:25.920Z,74.02
2018-06-04T22:23:53.976Z,74.53
2018-06-04T22:26:21.916Z,75.47
2018-06-04T22:28:49.931Z,76.73
2018-06-04T22:31:17.900Z,76.61
2018-06-04T22:33:45.838Z,75.25
2018-06-04T22:36:13.787Z,73.33
2018-06-04T22:38:41.677Z,72.94
2018-06-04T22:41:09.757Z,73.06
2018-06-04T22:43:37.833Z,73.36
2018-06-04T22:46:05.818Z,72.61
2018-06-04T22:48:33.728Z,73.20
2018-06-04T22:51:01.728Z,72.45
2018-06-04T22:53:29.662Z,72.28
2018-06-04T22:55:57.538Z,71.87
2018-06-04T22:58:25.488Z,71.72
2018-06-04T23:00:53.432Z,71.13
2018-06-04T23:03:21.317Z,71.03
2018-06-04T23:05:49.273Z,70.63
2018-06-04T23:08:17.266Z,70.60
2018-06-04T23:10:45.333Z,70.01
2018-06-04T23:13:13.309Z,69.41
2018-06-04T23:15:41.309Z,71.36
2018-06-04T23:18:09.302Z,73.02
2018-06-04T23:20:37.304Z,73.43
2018-06-04T23:23:05.287Z,73.26
2018-06-04T23:25:33.289Z,73.69
2018-06-04T23:28:02.206Z,73.00
2018-06-04T23:30:30.262Z,72.23
2018-06-04T23:32:58.203Z,71.68
2018-06-04T23:35:26.180Z,71.11
2018-06-04T23:37:54.105Z,72.05
2018-06-04T23:40:22.148Z,74.79
2018-06-04T23:42:50.017Z,74.29
2018-06-04T23:45:17.881Z,75.17
2018-06-04T23:47:45.817Z,75.37
2018-06-04T23:50:13.968Z,74.12
2018-06-04T23:52:41.925Z,74.11
2018-06-04T23:55:09.820Z,74.72
2018-06-04T23:57:37.788Z,74.17
